createdAt,value
2016-08-18T00:02:24.400Z,"    0"
2016-08-18T00:07:22.278Z,"    0"
2016-08-18T00:12:19.950Z,"    0"
2016-08-18T00:17:17.676Z,"    0"
2016-08-18T00:22:15.315Z,"    0"
2016-08-18T00:27:13.121Z,"    0"
2016-08-18T00:32:11.069Z,"    0"
2016-08-18T00:37:08.820Z,"    0"
2016-08-18T00:42:06.661Z,"    0"
2016-08-18T00:47:04.411Z,"    0"
2016-08-18T00:52:02.120Z,"    0"
2016-08-18T00:56:59.943Z,"    0"
2016-08-18T01:01:57.985Z,"    0"
2016-08-18T01:06:55.797Z,"    0"
2016-08-18T01:11:53.428Z,"    0"
2016-08-18T01:16:51.257Z,"    0"
2016-08-18T01:21:49.048Z,"    0"
2016-08-18T01:26:46.595Z,"    0"
2016-08-18T01:31:44.243Z,"    0"
2016-08-18T01:36:42.264Z,"    0"
2016-08-18T01:41:39.991Z,"    0"
2016-08-18T01:46:37.696Z,"    0"
2016-08-18T01:51:35.637Z,"    0"
2016-08-18T01:56:33.576Z,"    0"
2016-08-18T02:01:31.138Z,"    0"
2016-08-18T02:06:28.949Z,"    0"
2016-08-18T02:11:26.647Z,"    0"
2016-08-18T02:16:24.488Z,"    0"
2016-08-18T02:21:22.223Z,"    0"
2016-08-18T02:26:20.265Z,"    0"
2016-08-18T02:31:17.908Z,"    0"
2016-08-18T02:36:15.931Z,"    0"
2016-08-18T02:41:13.778Z,"    0"
2016-08-18T02:46:11.472Z,"    0"
2016-08-18T02:51:09.194Z,"    0"
2016-08-18T02:56:07.495Z,"    0"
2016-08-18T03:01:04.898Z,"    0"
2016-08-18T03:06:02.493Z,"    0"
2016-08-18T03:11:00.215Z,"    0"
2016-08-18T03:15:58.205Z,"    0"
2016-08-18T03:20:55.818Z,"    0"
2016-08-18T03:25:53.475Z,"    0"
2016-08-18T03:30:51.373Z,"    0"
2016-08-18T03:35:49.062Z,"    0"
2016-08-18T03:40:46.822Z,"    0"
2016-08-18T03:45:44.807Z,"    0"
2016-08-18T03:50:42.533Z,"    0"
2016-08-18T03:55:40.184Z,"    0"
2016-08-18T04:00:37.939Z,"    0"
2016-08-18T04:05:35.595Z,"    0"
2016-08-18T04:10:33.325Z,"    0"
2016-08-18T04:15:31.017Z,"    4"
2016-08-18T04:20:28.613Z,"    4"
2016-08-18T04:25:26.544Z,"    0"
2016-08-18T04:30:24.074Z,"    4"
2016-08-18T04:35:21.643Z,"    4"
2016-08-18T04:40:19.328Z,"    8"
2016-08-18T04:45:17.196Z,"    8"
2016-08-18T04:50:14.893Z,"   12"
2016-08-18T04:55:12.988Z,"   16"
2016-08-18T05:00:10.746Z,"   16"
2016-08-18T05:05:08.507Z,"   24"
2016-08-18T05:10:06.202Z,"   24"
2016-08-18T05:15:04.041Z,"   20"
2016-08-18T05:20:01.651Z,"   20"
2016-08-18T05:24:59.354Z,"   44"
2016-08-18T05:29:57.064Z,"  104"
2016-08-18T05:34:55.089Z,"  108"
2016-08-18T05:39:52.962Z,"   84"
2016-08-18T05:44:50.955Z,"   68"
2016-08-18T05:49:48.820Z,"   68"
2016-08-18T05:54:46.778Z,"  100"
2016-08-18T05:59:44.542Z,"   84"
2016-08-18T06:04:42.429Z,"  104"
2016-08-18T06:09:40.225Z,"  172"
2016-08-18T06:14:38.232Z,"  200"
2016-08-18T06:19:36.136Z,"  188"
2016-08-18T06:24:34.131Z,"  144"
2016-08-18T06:29:31.898Z,"  104"
2016-08-18T06:34:29.620Z,"   72"
2016-08-18T06:39:27.164Z,"   52"
2016-08-18T06:44:24.748Z,"   48"
2016-08-18T06:49:22.398Z,"   48"
2016-08-18T06:54:20.088Z,"   48"
2016-08-18T06:59:17.949Z,"   48"
2016-08-18T07:04:15.502Z,"   56"
2016-08-18T07:09:13.261Z,"   56"
2016-08-18T07:14:10.906Z,"   64"
2016-08-18T07:19:08.594Z,"   64"
2016-08-18T07:24:06.318Z,"   48"
2016-08-18T07:29:04.025Z,"   48"
2016-08-18T07:34:01.615Z,"   56"
2016-08-18T07:38:59.225Z,"   56"
2016-08-18T07:43:56.931Z,"   56"
2016-08-18T07:48:55.541Z,"   56"
2016-08-18T07:53:53.848Z,"   76"
2016-08-18T07:58:51.445Z,"   68"
2016-08-18T08:03:49.065Z,"  100"
2016-08-18T08:08:46.855Z,"  280"
2016-08-18T08:13:44.912Z,"  596"
2016-08-18T08:18:43.265Z,"  652"
2016-08-18T08:23:41.439Z,"  708"
2016-08-18T08:28:39.716Z,"  696"
2016-08-18T08:33:37.768Z,"  708"
2016-08-18T08:38:35.760Z,"  672"
2016-08-18T08:43:33.470Z,"  680"
2016-08-18T08:48:31.357Z,"  740"
2016-08-18T08:53:29.149Z,"  856"
2016-08-18T08:58:26.895Z," 1000"
2016-08-18T09:03:24.454Z,"  976"
2016-08-18T09:08:21.992Z,"  892"
2016-08-18T09:13:19.584Z,"  784"
2016-08-18T09:18:17.158Z,"  656"
2016-08-18T09:23:14.894Z,"  516"
2016-08-18T09:28:12.493Z,"  312"
2016-08-18T09:33:10.074Z,"   92"
2016-08-18T09:38:07.471Z,"   84"
2016-08-18T09:43:06.015Z,"   84"
2016-08-18T09:48:03.333Z,"   84"
2016-08-18T09:53:00.895Z,"   80"
2016-08-18T09:57:58.628Z,"   80"
2016-08-18T10:02:56.554Z,"   80"
2016-08-18T10:07:54.177Z,"   84"
2016-08-18T10:12:51.986Z,"   80"
2016-08-18T10:17:49.774Z,"   76"
2016-08-18T10:22:47.472Z,"   80"
2016-08-18T10:27:45.129Z,"   76"
2016-08-18T10:32:42.773Z,"   80"
2016-08-18T10:37:40.461Z,"   76"
2016-08-18T10:42:38.091Z,"   80"
2016-08-18T10:47:35.741Z,"   76"
2016-08-18T10:52:33.307Z,"   80"
2016-08-18T10:57:30.829Z,"   80"
2016-08-18T11:02:28.465Z,"   84"
2016-08-18T11:07:26.159Z,"   80"
2016-08-18T11:12:23.963Z,"   84"
2016-08-18T11:17:21.479Z,"   84"
2016-08-18T11:22:19.163Z,"   88"
2016-08-18T11:27:17.038Z,"   84"
2016-08-18T11:32:14.814Z,"   84"
2016-08-18T11:37:12.561Z,"   88"
2016-08-18T11:42:10.384Z,"   84"
2016-08-18T11:47:08.079Z,"   88"
2016-08-18T11:52:05.792Z,"   88"
2016-08-18T11:57:04.146Z,"   88"
2016-08-18T12:12:07.401Z,"   84"
2016-08-18T12:17:05.663Z,"   80"
2016-08-18T12:22:03.557Z,"   80"
2016-08-18T12:27:01.256Z,"   80"
2016-08-18T12:31:58.788Z,"   76"
2016-08-18T12:36:56.412Z,"   76"
2016-08-18T12:41:54.081Z,"   76"
2016-08-18T12:46:51.914Z,"   72"
2016-08-18T12:51:49.572Z,"   72"
2016-08-18T12:56:47.242Z,"   68"
2016-08-18T13:01:44.941Z,"   68"
2016-08-18T13:06:42.820Z,"   64"
2016-08-18T13:11:40.443Z,"   60"
2016-08-18T13:16:38.269Z,"   60"
2016-08-18T13:21:35.892Z,"   60"
2016-08-18T13:26:33.723Z,"   60"
2016-08-18T13:31:31.350Z,"   56"
2016-08-18T13:36:28.995Z,"   52"
2016-08-18T13:41:26.712Z,"   52"
2016-08-18T13:46:24.719Z,"   48"
2016-08-18T13:51:22.212Z,"   48"
2016-08-18T13:56:19.950Z,"   48"
2016-08-18T14:01:17.740Z,"   44"
2016-08-18T14:06:15.458Z,"   44"
2016-08-18T14:11:13.084Z,"   44"
2016-08-18T14:16:10.895Z,"   40"
2016-08-18T14:21:08.589Z,"   40"
2016-08-18T14:26:06.485Z,"   36"
2016-08-18T14:31:04.184Z,"   36"
2016-08-18T14:36:01.877Z,"   36"
2016-08-18T14:40:59.687Z,"   32"
2016-08-18T14:45:57.495Z,"   32"
2016-08-18T14:50:55.240Z,"   32"
2016-08-18T14:55:53.261Z,"   32"
2016-08-18T15:00:51.025Z,"   36"
2016-08-18T15:05:48.711Z,"   32"
2016-08-18T15:10:46.285Z,"   32"
2016-08-18T15:15:43.934Z,"   32"
2016-08-18T15:20:41.571Z,"   32"
2016-08-18T15:25:39.071Z,"   32"
2016-08-18T15:30:36.840Z,"   32"
2016-08-18T15:35:34.573Z,"   28"
2016-08-18T15:40:32.262Z,"   32"
2016-08-18T15:45:30.060Z,"   32"
2016-08-18T15:50:27.815Z,"   28"
2016-08-18T15:55:25.485Z,"   28"
2016-08-18T16:00:23.412Z,"   32"
2016-08-18T16:05:21.171Z,"   28"
2016-08-18T16:10:18.803Z,"   28"
2016-08-18T16:15:16.442Z,"   28"
2016-08-18T16:20:14.075Z,"   28"
2016-08-18T16:25:12.016Z,"   28"
2016-08-18T16:30:09.755Z,"   28"
2016-08-18T16:35:07.351Z,"   28"
2016-08-18T16:40:04.946Z,"   24"
2016-08-18T16:45:02.686Z,"   24"
2016-08-18T16:50:00.435Z,"   24"
2016-08-18T16:54:58.238Z,"   20"
2016-08-18T16:59:56.008Z,"   24"
2016-08-18T17:04:53.844Z,"   24"
2016-08-18T17:09:53.770Z,"   24"
2016-08-18T17:14:50.885Z,"   20"
2016-08-18T17:19:48.514Z,"   20"
2016-08-18T17:24:46.200Z,"   20"
2016-08-18T17:29:43.911Z,"   16"
2016-08-18T17:34:41.508Z,"   16"
2016-08-18T17:39:39.226Z,"   12"
2016-08-18T17:44:36.994Z,"   16"
2016-08-18T17:49:35.089Z,"   16"
2016-08-18T17:54:32.644Z,"   12"
2016-08-18T17:59:30.246Z,"   12"
2016-08-18T18:04:28.291Z,"    8"
2016-08-18T18:09:25.816Z,"    8"
2016-08-18T18:14:23.431Z,"    8"
2016-08-18T18:19:21.126Z,"    8"
2016-08-18T18:24:19.613Z,"    4"
2016-08-18T18:29:17.421Z,"    4"
2016-08-18T18:34:15.120Z,"    4"
2016-08-18T18:39:12.932Z,"    4"
2016-08-18T18:44:10.774Z,"    0"
2016-08-18T18:49:08.410Z,"    0"
2016-08-18T18:54:06.029Z,"    0"
2016-08-18T18:59:03.695Z,"    0"
2016-08-18T19:04:01.475Z,"    0"
2016-08-18T19:08:59.373Z,"    0"
2016-08-18T19:13:57.098Z,"    0"
2016-08-18T19:18:54.723Z,"    0"
2016-08-18T19:23:52.420Z,"    0"
2016-08-18T19:28:50.127Z,"    4"
2016-08-18T19:33:48.015Z,"    4"
2016-08-18T19:38:45.693Z,"    4"
2016-08-18T19:43:43.637Z,"    0"
2016-08-18T19:48:41.125Z,"    0"
2016-08-18T19:53:38.708Z,"    0"
2016-08-18T19:58:36.356Z,"    0"
2016-08-18T20:03:34.017Z,"    0"
2016-08-18T20:08:31.799Z,"    0"
2016-08-18T20:13:29.391Z,"    0"
2016-08-18T20:18:26.973Z,"    0"
2016-08-18T20:23:24.695Z,"    0"
2016-08-18T20:28:22.418Z,"    0"
2016-08-18T20:33:20.036Z,"    0"
2016-08-18T20:38:17.837Z,"    0"
2016-08-18T20:43:15.617Z,"    0"
2016-08-18T20:48:13.476Z,"    0"
2016-08-18T20:53:11.126Z,"    0"
2016-08-18T20:58:08.807Z,"    0"
2016-08-18T21:03:07.259Z,"    0"
2016-08-18T21:08:04.773Z,"    0"
2016-08-18T21:13:02.464Z,"    0"
2016-08-18T21:18:00.515Z,"    0"
2016-08-18T21:22:59.589Z,"    0"
2016-08-18T21:27:58.286Z,"    0"
2016-08-18T21:32:55.951Z,"    0"
2016-08-18T21:37:53.550Z,"    0"
2016-08-18T21:42:51.422Z,"    0"
2016-08-18T21:47:49.094Z,"    0"
2016-08-18T21:52:46.751Z,"    0"
2016-08-18T21:57:44.344Z,"    0"
2016-08-18T22:02:42.254Z,"    0"
2016-08-18T22:07:40.067Z,"    0"
2016-08-18T22:17:39.284Z,"    0"
2016-08-18T22:22:37.377Z,"    0"
2016-08-18T22:27:35.053Z,"    0"
2016-08-18T22:32:32.723Z,"    0"
2016-08-18T22:37:30.388Z,"    0"
2016-08-18T22:42:28.146Z,"    0"
2016-08-18T22:47:25.718Z,"    0"
2016-08-18T22:52:23.517Z,"    0"
2016-08-18T22:57:21.164Z,"    0"
2016-08-18T23:02:18.894Z,"    0"
2016-08-18T23:07:16.696Z,"    0"
2016-08-18T23:12:14.429Z,"    0"
2016-08-18T23:17:12.152Z,"    0"
2016-08-18T23:22:09.821Z,"    0"
2016-08-18T23:27:07.564Z,"    0"
2016-08-18T23:32:05.366Z,"    0"
2016-08-18T23:37:02.990Z,"    0"
2016-08-18T23:42:00.714Z,"    0"
2016-08-18T23:46:58.334Z,"    0"
2016-08-18T23:51:56.065Z,"    0"
2016-08-18T23:56:53.793Z,"    0"
